sensor_id;sensor_type;location;lat;lon;timestamp;pressure;altitude;pressure_sealevel;temperature;humidity
50636;BME280;36598;46.054;11.130;2022-08-19T00:01:48;98747.25;;;20.31;92.94
50636;BME280;36598;46.054;11.130;2022-08-19T00:04:14;98739.44;;;20.40;91.94
50636;BME280;36598;46.054;11.130;2022-08-19T00:06:40;98727.63;;;20.36;92.71
50636;BME280;36598;46.054;11.130;2022-08-19T00:09:07;98714.66;;;20.18;92.60
50636;BME280;36598;46.054;11.130;2022-08-19T00:11:33;98722.22;;;20.12;93.38
50636;BME280;36598;46.054;11.130;2022-08-19T00:14:02;98729.53;;;20.24;92.24
50636;BME280;36598;46.054;11.130;2022-08-19T00:16:28;98722.16;;;20.27;91.65
50636;BME280;36598;46.054;11.130;2022-08-19T00:18:54;98699.13;;;20.43;91.14
50636;BME280;36598;46.054;11.130;2022-08-19T00:21:20;98704.72;;;20.43;91.99
50636;BME280;36598;46.054;11.130;2022-08-19T00:23:45;98717.72;;;20.41;91.46
50636;BME280;36598;46.054;11.130;2022-08-19T00:26:11;98715.00;;;20.26;92.61
50636;BME280;36598;46.054;11.130;2022-08-19T00:28:36;98721.25;;;20.36;92.93
50636;BME280;36598;46.054;11.130;2022-08-19T00:31:02;98730.09;;;20.49;92.43
50636;BME280;36598;46.054;11.130;2022-08-19T00:33:28;98733.19;;;20.51;92.57
50636;BME280;36598;46.054;11.130;2022-08-19T00:35:54;98751.59;;;20.52;92.39
50636;BME280;36598;46.054;11.130;2022-08-19T00:38:19;98735.84;;;20.40;92.27
50636;BME280;36598;46.054;11.130;2022-08-19T00:40:47;98739.06;;;20.33;92.37
50636;BME280;36598;46.054;11.130;2022-08-19T00:43:12;98731.06;;;20.25;93.03
50636;BME280;36598;46.054;11.130;2022-08-19T00:45:38;98718.44;;;20.15;93.87
50636;BME280;36598;46.054;11.130;2022-08-19T00:48:06;98699.91;;;20.23;93.69
50636;BME280;36598;46.054;11.130;2022-08-19T00:50:31;98683.41;;;20.11;94.16
50636;BME280;36598;46.054;11.130;2022-08-19T00:52:57;98682.13;;;20.32;93.17
50636;BME280;36598;46.054;11.130;2022-08-19T00:55:25;98670.63;;;20.30;93.80
50636;BME280;36598;46.054;11.130;2022-08-19T00:58:01;98655.19;;;19.99;93.52
50636;BME280;36598;46.054;11.130;2022-08-19T01:00:27;98656.44;;;20.19;92.83
50636;BME280;36598;46.054;11.130;2022-08-19T01:02:53;98645.56;;;20.06;93.41
50636;BME280;36598;46.054;11.130;2022-08-19T01:05:20;98606.31;;;20.12;93.70
50636;BME280;36598;46.054;11.130;2022-08-19T01:07:46;98568.84;;;20.20;92.60
50636;BME280;36598;46.054;11.130;2022-08-19T01:10:14;98546.28;;;20.09;92.66
50636;BME280;36598;46.054;11.130;2022-08-19T01:12:40;98551.19;;;20.14;92.47
50636;BME280;36598;46.054;11.130;2022-08-19T01:15:07;98570.72;;;20.03;93.84
50636;BME280;36598;46.054;11.130;2022-08-19T01:17:34;98583.91;;;20.17;92.62
50636;BME280;36598;46.054;11.130;2022-08-19T01:20:00;98590.13;;;20.01;93.46
50636;BME280;36598;46.054;11.130;2022-08-19T01:24:51;98545.03;;;20.10;92.56
50636;BME280;36598;46.054;11.130;2022-08-19T01:27:17;98547.44;;;19.97;92.63
50636;BME280;36598;46.054;11.130;2022-08-19T01:29:42;98558.00;;;20.08;92.59
50636;BME280;36598;46.054;11.130;2022-08-19T01:32:11;98568.84;;;20.20;91.90
50636;BME280;36598;46.054;11.130;2022-08-19T01:34:36;98558.75;;;19.82;93.76
50636;BME280;36598;46.054;11.130;2022-08-19T01:37:05;98550.56;;;19.79;95.09
50636;BME280;36598;46.054;11.130;2022-08-19T01:39:33;98542.09;;;19.99;94.09
50636;BME280;36598;46.054;11.130;2022-08-19T01:41:58;98513.41;;;19.89;94.42
50636;BME280;36598;46.054;11.130;2022-08-19T01:44:23;98517.41;;;19.83;94.44
50636;BME280;36598;46.054;11.130;2022-08-19T01:46:49;98577.94;;;19.84;93.89
50636;BME280;36598;46.054;11.130;2022-08-19T01:49:16;98648.72;;;19.73;92.71
50636;BME280;36598;46.054;11.130;2022-08-19T01:51:42;98684.06;;;19.30;97.68
50636;BME280;36598;46.054;11.130;2022-08-19T01:54:08;98697.03;;;19.27;98.12
50636;BME280;36598;46.054;11.130;2022-08-19T01:56:33;98669.53;;;19.46;97.10
50636;BME280;36598;46.054;11.130;2022-08-19T01:59:03;98656.25;;;19.82;95.67
50636;BME280;36598;46.054;11.130;2022-08-19T02:01:29;98649.44;;;19.88;96.38
50636;BME280;36598;46.054;11.130;2022-08-19T02:03:59;98626.41;;;19.64;95.54
50636;BME280;36598;46.054;11.130;2022-08-19T02:06:25;98610.75;;;19.57;96.50
50636;BME280;36598;46.054;11.130;2022-08-19T02:08:51;98615.38;;;19.60;95.67
50636;BME280;36598;46.054;11.130;2022-08-19T02:11:24;98619.38;;;19.54;95.14
50636;BME280;36598;46.054;11.130;2022-08-19T02:13:51;98630.28;;;19.66;93.17
50636;BME280;36598;46.054;11.130;2022-08-19T02:16:17;98641.22;;;19.85;92.03
50636;BME280;36598;46.054;11.130;2022-08-19T02:18:43;98624.03;;;19.97;89.02
50636;BME280;36598;46.054;11.130;2022-08-19T02:21:08;98609.63;;;20.10;86.50
50636;BME280;36598;46.054;11.130;2022-08-19T02:23:34;98588.59;;;20.26;88.43
50636;BME280;36598;46.054;11.130;2022-08-19T02:25:59;98572.00;;;20.28;89.40
50636;BME280;36598;46.054;11.130;2022-08-19T02:28:24;98561.81;;;20.31;89.03
50636;BME280;36598;46.054;11.130;2022-08-19T02:30:50;98543.88;;;20.22;88.53
50636;BME280;36598;46.054;11.130;2022-08-19T02:33:15;98534.06;;;20.12;88.60
50636;BME280;36598;46.054;11.130;2022-08-19T02:35:42;98539.56;;;20.01;90.00
50636;BME280;36598;46.054;11.130;2022-08-19T02:38:08;98538.91;;;20.12;89.76
50636;BME280;36598;46.054;11.130;2022-08-19T02:41:33;98523.88;;;20.15;90.03
50636;BME280;36598;46.054;11.130;2022-08-19T02:43:40;98495.66;;;20.30;88.90
50636;BME280;36598;46.054;11.130;2022-08-19T02:48:43;98480.88;;;20.03;89.88
50636;BME280;36598;46.054;11.130;2022-08-19T02:51:08;98473.22;;;19.77;90.65
50636;BME280;36598;46.054;11.130;2022-08-19T02:53:40;98482.53;;;19.63;90.84
50636;BME280;36598;46.054;11.130;2022-08-19T02:56:06;98490.78;;;19.72;89.90
50636;BME280;36598;46.054;11.130;2022-08-19T02:58:31;98500.69;;;19.68;89.55
50636;BME280;36598;46.054;11.130;2022-08-19T03:00:57;98510.81;;;19.86;88.20
50636;BME280;36598;46.054;11.130;2022-08-19T03:03:22;98513.53;;;19.74;87.90
50636;BME280;36598;46.054;11.130;2022-08-19T03:05:48;98510.16;;;19.70;88.10
50636;BME280;36598;46.054;11.130;2022-08-19T03:08:14;98500.63;;;19.62;89.26
50636;BME280;36598;46.054;11.130;2022-08-19T03:10:43;98487.25;;;19.77;89.68
50636;BME280;36598;46.054;11.130;2022-08-19T03:13:10;98485.78;;;19.82;89.04
50636;BME280;36598;46.054;11.130;2022-08-19T03:15:39;98486.28;;;19.81;88.49
50636;BME280;36598;46.054;11.130;2022-08-19T03:18:04;98478.31;;;19.53;91.28
50636;BME280;36598;46.054;11.130;2022-08-19T03:20:29;98465.34;;;19.82;90.15
50636;BME280;36598;46.054;11.130;2022-08-19T03:22:55;98451.41;;;19.87;89.02
50636;BME280;36598;46.054;11.130;2022-08-19T03:25:20;98447.88;;;19.66;89.29
50636;BME280;36598;46.054;11.130;2022-08-19T03:27:45;98471.66;;;19.71;88.82
50636;BME280;36598;46.054;11.130;2022-08-19T03:30:14;98485.06;;;19.41;90.39
50636;BME280;36598;46.054;11.130;2022-08-19T03:32:39;98485.03;;;19.61;89.97
50636;BME280;36598;46.054;11.130;2022-08-19T03:35:04;98507.63;;;19.72;90.31
50636;BME280;36598;46.054;11.130;2022-08-19T03:37:30;98525.53;;;19.75;89.62
50636;BME280;36598;46.054;11.130;2022-08-19T03:39:56;98524.69;;;19.69;88.79
50636;BME280;36598;46.054;11.130;2022-08-19T03:42:21;98519.78;;;19.90;88.39
50636;BME280;36598;46.054;11.130;2022-08-19T03:44:46;98516.16;;;19.84;89.33
50636;BME280;36598;46.054;11.130;2022-08-19T03:47:12;98523.81;;;19.83;88.73
50636;BME280;36598;46.054;11.130;2022-08-19T03:49:40;98540.00;;;19.94;87.92
50636;BME280;36598;46.054;11.130;2022-08-19T03:52:06;98548.22;;;19.97;87.77
50636;BME280;36598;46.054;11.130;2022-08-19T03:54:32;98554.53;;;19.92;88.03
50636;BME280;36598;46.054;11.130;2022-08-19T03:56:57;98562.03;;;20.01;87.83
50636;BME280;36598;46.054;11.130;2022-08-19T03:59:27;98571.25;;;19.81;87.40
50636;BME280;36598;46.054;11.130;2022-08-19T04:01:53;98573.44;;;19.71;88.77
50636;BME280;36598;46.054;11.130;2022-08-19T04:04:19;98577.47;;;19.91;87.75
50636;BME280;36598;46.054;11.130;2022-08-19T04:06:44;98581.72;;;19.81;88.18
50636;BME280;36598;46.054;11.130;2022-08-19T04:09:12;98586.56;;;19.80;88.13
50636;BME280;36598;46.054;11.130;2022-08-19T04:11:39;98592.75;;;19.84;87.65
50636;BME280;36598;46.054;11.130;2022-08-19T04:14:07;98601.22;;;19.69;87.43
50636;BME280;36598;46.054;11.130;2022-08-19T04:16:33;98608.75;;;19.43;89.52
50636;BME280;36598;46.054;11.130;2022-08-19T04:19:02;98614.81;;;19.56;89.62
50636;BME280;36598;46.054;11.130;2022-08-19T04:21:28;98627.69;;;19.48;91.28
50636;BME280;36598;46.054;11.130;2022-08-19T04:23:54;98634.63;;;19.67;90.38
50636;BME280;36598;46.054;11.130;2022-08-19T04:26:24;98651.63;;;19.79;89.90
50636;BME280;36598;46.054;11.130;2022-08-19T04:28:49;98647.75;;;19.76;89.26
50636;BME280;36598;46.054;11.130;2022-08-19T04:31:20;98657.25;;;19.79;89.07
50636;BME280;36598;46.054;11.130;2022-08-19T04:33:46;98648.78;;;19.58;90.21
50636;BME280;36598;46.054;11.130;2022-08-19T04:36:18;98643.22;;;19.79;89.08
50636;BME280;36598;46.054;11.130;2022-08-19T04:38:44;98637.25;;;19.71;89.91
50636;BME280;36598;46.054;11.130;2022-08-19T04:41:09;98640.19;;;19.62;90.04
50636;BME280;36598;46.054;11.130;2022-08-19T04:43:53;98637.16;;;19.65;90.39
50636;BME280;36598;46.054;11.130;2022-08-19T04:46:18;98640.63;;;19.60;89.96
50636;BME280;36598;46.054;11.130;2022-08-19T04:48:45;98632.22;;;19.60;90.11
50636;BME280;36598;46.054;11.130;2022-08-19T04:51:11;98635.19;;;19.71;88.82
50636;BME280;36598;46.054;11.130;2022-08-19T04:53:38;98630.19;;;19.61;89.88
50636;BME280;36598;46.054;11.130;2022-08-19T04:56:05;98621.63;;;19.49;89.76
50636;BME280;36598;46.054;11.130;2022-08-19T04:58:31;98619.91;;;19.72;88.28
50636;BME280;36598;46.054;11.130;2022-08-19T05:00:57;98625.91;;;19.86;87.60
50636;BME280;36598;46.054;11.130;2022-08-19T05:03:24;98639.97;;;19.86;87.28
50636;BME280;36598;46.054;11.130;2022-08-19T05:05:50;98637.66;;;19.84;87.22
50636;BME280;36598;46.054;11.130;2022-08-19T05:08:16;98637.56;;;19.99;85.20
50636;BME280;36598;46.054;11.130;2022-08-19T05:10:48;98635.69;;;19.70;87.01
50636;BME280;36598;46.054;11.130;2022-08-19T05:13:14;98647.56;;;19.80;86.99
50636;BME280;36598;46.054;11.130;2022-08-19T05:15:39;98636.53;;;19.96;86.30
50636;BME280;36598;46.054;11.130;2022-08-19T05:18:05;98649.09;;;20.01;85.63
50636;BME280;36598;46.054;11.130;2022-08-19T05:20:50;98649.56;;;19.99;85.86
50636;BME280;36598;46.054;11.130;2022-08-19T05:23:34;98648.63;;;20.08;85.08
50636;BME280;36598;46.054;11.130;2022-08-19T05:25:59;98643.75;;;20.03;85.07
50636;BME280;36598;46.054;11.130;2022-08-19T05:28:25;98661.28;;;20.18;84.95
50636;BME280;36598;46.054;11.130;2022-08-19T05:30:50;98669.91;;;19.74;86.65
50636;BME280;36598;46.054;11.130;2022-08-19T05:33:16;98672.28;;;19.25;89.89
50636;BME280;36598;46.054;11.130;2022-08-19T05:35:41;98671.34;;;19.49;89.43
50636;BME280;36598;46.054;11.130;2022-08-19T05:38:07;98673.06;;;19.61;86.97
50636;BME280;36598;46.054;11.130;2022-08-19T05:40:35;98680.75;;;19.46;86.56
50636;BME280;36598;46.054;11.130;2022-08-19T05:43:01;98668.66;;;19.95;84.96
50636;BME280;36598;46.054;11.130;2022-08-19T05:45:27;98656.31;;;20.08;84.41
50636;BME280;36598;46.054;11.130;2022-08-19T05:47:52;98649.88;;;20.48;82.76
50636;BME280;36598;46.054;11.130;2022-08-19T05:50:18;98637.84;;;20.47;83.11
50636;BME280;36598;46.054;11.130;2022-08-19T05:52:43;98642.84;;;20.64;82.93
50636;BME280;36598;46.054;11.130;2022-08-19T05:55:08;98634.25;;;21.05;80.89
50636;BME280;36598;46.054;11.130;2022-08-19T05:57:34;98627.56;;;20.96;80.35
50636;BME280;36598;46.054;11.130;2022-08-19T05:59:59;98623.00;;;21.05;80.99
50636;BME280;36598;46.054;11.130;2022-08-19T06:02:27;98611.66;;;21.25;80.69
50636;BME280;36598;46.054;11.130;2022-08-19T06:04:52;98609.09;;;21.27;79.52
50636;BME280;36598;46.054;11.130;2022-08-19T06:07:18;98613.06;;;21.46;79.27
50636;BME280;36598;46.054;11.130;2022-08-19T06:09:44;98605.31;;;21.90;76.33
50636;BME280;36598;46.054;11.130;2022-08-19T06:12:09;98602.56;;;22.07;74.55
50636;BME280;36598;46.054;11.130;2022-08-19T06:14:35;98608.00;;;21.62;77.00
50636;BME280;36598;46.054;11.130;2022-08-19T06:17:00;98618.94;;;21.97;76.02
50636;BME280;36598;46.054;11.130;2022-08-19T06:19:27;98620.19;;;21.96;75.60
50636;BME280;36598;46.054;11.130;2022-08-19T06:21:54;98628.84;;;21.75;76.49
50636;BME280;36598;46.054;11.130;2022-08-19T06:24:21;98643.69;;;21.33;78.08
50636;BME280;36598;46.054;11.130;2022-08-19T06:26:48;98633.09;;;21.22;78.77
50636;BME280;36598;46.054;11.130;2022-08-19T06:29:14;98626.44;;;22.22;74.46
50636;BME280;36598;46.054;11.130;2022-08-19T06:31:44;98626.22;;;23.44;70.49
50636;BME280;36598;46.054;11.130;2022-08-19T06:34:09;98620.72;;;23.85;68.88
50636;BME280;36598;46.054;11.130;2022-08-19T06:36:36;98617.31;;;22.61;71.69
50636;BME280;36598;46.054;11.130;2022-08-19T06:39:06;98610.88;;;22.66;71.78
50636;BME280;36598;46.054;11.130;2022-08-19T06:41:34;98614.41;;;23.45;68.79
50636;BME280;36598;46.054;11.130;2022-08-19T06:44:00;98614.03;;;23.88;67.48
50636;BME280;36598;46.054;11.130;2022-08-19T06:46:26;98612.63;;;22.30;73.35
50636;BME280;36598;46.054;11.130;2022-08-19T06:48:51;98619.81;;;23.38;69.17
50636;BME280;36598;46.054;11.130;2022-08-19T06:51:18;98625.50;;;22.82;70.15
50636;BME280;36598;46.054;11.130;2022-08-19T06:53:44;98644.00;;;22.94;71.15
50636;BME280;36598;46.054;11.130;2022-08-19T06:56:15;98647.53;;;22.61;71.16
50636;BME280;36598;46.054;11.130;2022-08-19T06:58:41;98644.69;;;21.79;72.80
50636;BME280;36598;46.054;11.130;2022-08-19T07:01:07;98641.16;;;22.99;69.76
50636;BME280;36598;46.054;11.130;2022-08-19T07:03:33;98633.06;;;23.77;66.61
50636;BME280;36598;46.054;11.130;2022-08-19T07:06:06;98621.06;;;24.17;66.59
50636;BME280;36598;46.054;11.130;2022-08-19T07:08:32;98623.72;;;24.87;64.10
50636;BME280;36598;46.054;11.130;2022-08-19T07:10:57;98623.22;;;24.83;63.54
50636;BME280;36598;46.054;11.130;2022-08-19T07:13:22;98622.38;;;25.48;60.08
50636;BME280;36598;46.054;11.130;2022-08-19T07:15:48;98627.44;;;24.70;62.47
50636;BME280;36598;46.054;11.130;2022-08-19T07:18:16;98619.69;;;24.77;61.98
50636;BME280;36598;46.054;11.130;2022-08-19T07:20:41;98625.59;;;24.43;63.26
50636;BME280;36598;46.054;11.130;2022-08-19T07:23:08;98623.44;;;24.08;62.77
50636;BME280;36598;46.054;11.130;2022-08-19T07:25:33;98631.66;;;24.58;61.71
50636;BME280;36598;46.054;11.130;2022-08-19T07:28:00;98628.22;;;24.30;63.82
50636;BME280;36598;46.054;11.130;2022-08-19T07:30:26;98636.06;;;24.01;64.04
50636;BME280;36598;46.054;11.130;2022-08-19T07:32:51;98624.94;;;24.14;64.22
50636;BME280;36598;46.054;11.130;2022-08-19T07:35:17;98625.91;;;23.70;65.49
50636;BME280;36598;46.054;11.130;2022-08-19T07:37:44;98638.53;;;23.52;67.00
50636;BME280;36598;46.054;11.130;2022-08-19T07:40:09;98643.94;;;23.33;65.67
50636;BME280;36598;46.054;11.130;2022-08-19T07:42:36;98645.72;;;23.53;65.31
50636;BME280;36598;46.054;11.130;2022-08-19T07:45:02;98654.22;;;23.31;66.43
50636;BME280;36598;46.054;11.130;2022-08-19T07:47:27;98655.28;;;22.94;67.05
50636;BME280;36598;46.054;11.130;2022-08-19T07:49:53;98654.22;;;22.86;66.58
50636;BME280;36598;46.054;11.130;2022-08-19T07:52:18;98655.72;;;22.59;68.75
50636;BME280;36598;46.054;11.130;2022-08-19T07:54:43;98653.47;;;22.91;67.16
50636;BME280;36598;46.054;11.130;2022-08-19T07:57:09;98651.19;;;23.01;68.00
50636;BME280;36598;46.054;11.130;2022-08-19T07:59:34;98652.69;;;22.85;68.44
50636;BME280;36598;46.054;11.130;2022-08-19T08:01:59;98644.75;;;22.83;68.28
50636;BME280;36598;46.054;11.130;2022-08-19T08:04:26;98638.09;;;23.14;67.31
50636;BME280;36598;46.054;11.130;2022-08-19T08:07:09;98637.03;;;23.12;67.71
50636;BME280;36598;46.054;11.130;2022-08-19T08:09:53;98644.72;;;23.39;67.33
50636;BME280;36598;46.054;11.130;2022-08-19T08:12:20;98633.47;;;23.06;67.34
50636;BME280;36598;46.054;11.130;2022-08-19T08:14:50;98627.53;;;22.87;67.63
50636;BME280;36598;46.054;11.130;2022-08-19T08:17:17;98624.44;;;23.41;66.15
50636;BME280;36598;46.054;11.130;2022-08-19T08:19:42;98628.53;;;23.40;66.88
50636;BME280;36598;46.054;11.130;2022-08-19T08:22:09;98620.53;;;23.66;65.71
50636;BME280;36598;46.054;11.130;2022-08-19T08:24:54;98622.09;;;23.50;66.20
50636;BME280;36598;46.054;11.130;2022-08-19T08:27:23;98619.25;;;23.67;65.39
50636;BME280;36598;46.054;11.130;2022-08-19T08:29:48;98619.72;;;23.83;64.84
50636;BME280;36598;46.054;11.130;2022-08-19T08:32:14;98619.41;;;23.92;64.73
50636;BME280;36598;46.054;11.130;2022-08-19T08:34:39;98620.38;;;24.06;64.19
50636;BME280;36598;46.054;11.130;2022-08-19T08:37:04;98616.59;;;23.92;64.79
50636;BME280;36598;46.054;11.130;2022-08-19T08:39:30;98616.19;;;23.60;65.67
50636;BME280;36598;46.054;11.130;2022-08-19T08:44:53;98622.81;;;23.79;64.99
50636;BME280;36598;46.054;11.130;2022-08-19T08:47:22;98633.41;;;23.34;65.60
50636;BME280;36598;46.054;11.130;2022-08-19T08:52:21;98630.63;;;23.22;66.70
50636;BME280;36598;46.054;11.130;2022-08-19T08:54:48;98643.22;;;22.93;68.92
50636;BME280;36598;46.054;11.130;2022-08-19T08:57:17;98656.50;;;23.38;66.97
50636;BME280;36598;46.054;11.130;2022-08-19T08:59:45;98662.94;;;23.44;65.88
50636;BME280;36598;46.054;11.130;2022-08-19T09:02:11;98663.94;;;22.62;67.41
50636;BME280;36598;46.054;11.130;2022-08-19T09:04:37;98668.59;;;22.88;67.22
50636;BME280;36598;46.054;11.130;2022-08-19T09:09:45;98671.63;;;22.56;68.33
50636;BME280;36598;46.054;11.130;2022-08-19T09:12:20;98666.00;;;22.84;67.48
50636;BME280;36598;46.054;11.130;2022-08-19T09:17:14;98658.34;;;23.02;66.84
50636;BME280;36598;46.054;11.130;2022-08-19T09:19:57;98665.00;;;23.15;65.79
50636;BME280;36598;46.054;11.130;2022-08-19T09:22:23;98668.09;;;22.95;66.41
50636;BME280;36598;46.054;11.130;2022-08-19T09:24:49;98669.06;;;22.58;66.75
50636;BME280;36598;46.054;11.130;2022-08-19T09:27:15;98667.59;;;23.02;65.92
50636;BME280;36598;46.054;11.130;2022-08-19T09:29:40;98672.94;;;23.45;64.22
50636;BME280;36598;46.054;11.130;2022-08-19T09:32:06;98676.25;;;22.76;65.34
50636;BME280;36598;46.054;11.130;2022-08-19T09:34:31;98659.03;;;22.40;68.71
50636;BME280;36598;46.054;11.130;2022-08-19T09:36:57;98653.69;;;23.49;65.33
50636;BME280;36598;46.054;11.130;2022-08-19T09:39:23;98643.19;;;23.33;65.40
50636;BME280;36598;46.054;11.130;2022-08-19T09:41:49;98625.59;;;23.85;63.78
50636;BME280;36598;46.054;11.130;2022-08-19T09:44:18;98607.56;;;23.93;63.58
50636;BME280;36598;46.054;11.130;2022-08-19T09:46:45;98587.94;;;24.18;62.08
50636;BME280;36598;46.054;11.130;2022-08-19T09:49:11;98578.56;;;24.34;61.34
50636;BME280;36598;46.054;11.130;2022-08-19T09:51:37;98603.03;;;24.26;61.87
50636;BME280;36598;46.054;11.130;2022-08-19T09:54:02;98623.09;;;24.22;61.07
50636;BME280;36598;46.054;11.130;2022-08-19T09:56:28;98629.41;;;23.98;62.74
50636;BME280;36598;46.054;11.130;2022-08-19T09:58:55;98620.16;;;24.81;61.25
50636;BME280;36598;46.054;11.130;2022-08-19T10:01:24;98616.41;;;25.52;60.30
50636;BME280;36598;46.054;11.130;2022-08-19T10:03:50;98609.56;;;26.28;57.47
50636;BME280;36598;46.054;11.130;2022-08-19T10:06:16;98600.53;;;26.30;56.23
50636;BME280;36598;46.054;11.130;2022-08-19T10:08:42;98607.88;;;26.57;55.12
50636;BME280;36598;46.054;11.130;2022-08-19T10:11:07;98594.31;;;26.82;53.01
50636;BME280;36598;46.054;11.130;2022-08-19T10:13:33;98594.03;;;26.67;52.38
50636;BME280;36598;46.054;11.130;2022-08-19T10:16:11;98594.22;;;25.99;53.37
50636;BME280;36598;46.054;11.130;2022-08-19T10:18:38;98587.25;;;25.81;55.63
50636;BME280;36598;46.054;11.130;2022-08-19T10:21:06;98585.59;;;25.91;55.84
50636;BME280;36598;46.054;11.130;2022-08-19T10:23:35;98585.50;;;25.29;57.35
50636;BME280;36598;46.054;11.130;2022-08-19T10:26:01;98573.84;;;25.14;56.87
50636;BME280;36598;46.054;11.130;2022-08-19T10:28:28;98569.00;;;25.33;56.69
50636;BME280;36598;46.054;11.130;2022-08-19T10:30:54;98553.34;;;25.02;57.08
50636;BME280;36598;46.054;11.130;2022-08-19T10:33:19;98544.72;;;25.62;56.12
50636;BME280;36598;46.054;11.130;2022-08-19T10:35:44;98546.75;;;26.05;54.43
50636;BME280;36598;46.054;11.130;2022-08-19T10:38:11;98549.47;;;24.75;58.56
50636;BME280;36598;46.054;11.130;2022-08-19T10:40:36;98555.69;;;25.47;56.33
50636;BME280;36598;46.054;11.130;2022-08-19T10:43:02;98559.03;;;25.70;55.67
50636;BME280;36598;46.054;11.130;2022-08-19T10:45:27;98552.50;;;26.00;55.01
50636;BME280;36598;46.054;11.130;2022-08-19T10:47:52;98557.28;;;26.23;54.21
50636;BME280;36598;46.054;11.130;2022-08-19T10:50:18;98551.53;;;26.48;54.32
50636;BME280;36598;46.054;11.130;2022-08-19T10:53:06;98551.56;;;25.91;55.56
50636;BME280;36598;46.054;11.130;2022-08-19T10:55:33;98548.88;;;25.99;55.40
50636;BME280;36598;46.054;11.130;2022-08-19T10:58:18;98553.41;;;25.89;55.77
50636;BME280;36598;46.054;11.130;2022-08-19T11:00:54;98547.06;;;25.58;55.76
50636;BME280;36598;46.054;11.130;2022-08-19T11:03:19;98540.41;;;25.56;56.61
50636;BME280;36598;46.054;11.130;2022-08-19T11:05:45;98551.50;;;25.10;57.67
50636;BME280;36598;46.054;11.130;2022-08-19T11:08:10;98546.06;;;25.37;57.23
50636;BME280;36598;46.054;11.130;2022-08-19T11:10:36;98537.50;;;24.63;58.88
50636;BME280;36598;46.054;11.130;2022-08-19T11:13:02;98542.50;;;25.31;57.14
50636;BME280;36598;46.054;11.130;2022-08-19T11:15:28;98535.78;;;24.55;59.32
50636;BME280;36598;46.054;11.130;2022-08-19T11:17:53;98535.38;;;24.69;58.51
50636;BME280;36598;46.054;11.130;2022-08-19T11:20:19;98534.25;;;25.08;58.07
50636;BME280;36598;46.054;11.130;2022-08-19T11:22:45;98525.47;;;25.36;56.69
50636;BME280;36598;46.054;11.130;2022-08-19T11:25:10;98524.03;;;25.67;56.59
50636;BME280;36598;46.054;11.130;2022-08-19T11:27:39;98518.09;;;25.90;55.57
50636;BME280;36598;46.054;11.130;2022-08-19T11:30:07;98526.88;;;25.67;56.34
50636;BME280;36598;46.054;11.130;2022-08-19T11:32:32;98528.59;;;25.33;56.99
50636;BME280;36598;46.054;11.130;2022-08-19T11:34:58;98524.91;;;26.00;55.26
50636;BME280;36598;46.054;11.130;2022-08-19T11:37:24;98520.81;;;25.58;57.26
50636;BME280;36598;46.054;11.130;2022-08-19T11:39:49;98521.44;;;26.07;56.23
50636;BME280;36598;46.054;11.130;2022-08-19T11:42:14;98528.09;;;25.72;56.19
50636;BME280;36598;46.054;11.130;2022-08-19T11:44:58;98523.41;;;25.37;56.61
50636;BME280;36598;46.054;11.130;2022-08-19T11:47:23;98517.03;;;25.93;55.77
50636;BME280;36598;46.054;11.130;2022-08-19T11:49:49;98519.44;;;25.64;56.66
50636;BME280;36598;46.054;11.130;2022-08-19T11:52:14;98517.06;;;25.68;56.64
50636;BME280;36598;46.054;11.130;2022-08-19T11:54:39;98520.66;;;25.50;57.43
50636;BME280;36598;46.054;11.130;2022-08-19T11:57:05;98512.63;;;25.11;57.44
50636;BME280;36598;46.054;11.130;2022-08-19T11:59:30;98503.06;;;25.57;56.20
50636;BME280;36598;46.054;11.130;2022-08-19T12:01:55;98497.78;;;25.67;55.93
50636;BME280;36598;46.054;11.130;2022-08-19T12:04:22;98501.84;;;25.90;55.01
50636;BME280;36598;46.054;11.130;2022-08-19T12:06:48;98510.06;;;24.83;58.28
50636;BME280;36598;46.054;11.130;2022-08-19T12:09:15;98506.28;;;24.74;59.20
50636;BME280;36598;46.054;11.130;2022-08-19T12:11:41;98502.09;;;24.81;59.33
50636;BME280;36598;46.054;11.130;2022-08-19T12:14:08;98503.22;;;24.97;58.65
50636;BME280;36598;46.054;11.130;2022-08-19T12:16:34;98497.28;;;25.25;57.79
50636;BME280;36598;46.054;11.130;2022-08-19T12:18:59;98495.53;;;24.92;59.08
50636;BME280;36598;46.054;11.130;2022-08-19T12:21:29;98499.78;;;25.53;56.99
50636;BME280;36598;46.054;11.130;2022-08-19T12:23:55;98490.97;;;25.57;57.10
50636;BME280;36598;46.054;11.130;2022-08-19T12:26:21;98488.63;;;26.12;54.80
50636;BME280;36598;46.054;11.130;2022-08-19T12:28:46;98489.38;;;25.61;56.00
50636;BME280;36598;46.054;11.130;2022-08-19T12:31:13;98484.06;;;25.33;56.12
50636;BME280;36598;46.054;11.130;2022-08-19T12:33:38;98477.38;;;25.31;56.99
50636;BME280;36598;46.054;11.130;2022-08-19T12:36:05;98470.91;;;25.36;56.42
50636;BME280;36598;46.054;11.130;2022-08-19T12:38:31;98469.25;;;25.21;57.13
50636;BME280;36598;46.054;11.130;2022-08-19T12:40:57;98464.75;;;25.69;56.23
50636;BME280;36598;46.054;11.130;2022-08-19T12:43:22;98454.97;;;26.08;55.00
50636;BME280;36598;46.054;11.130;2022-08-19T12:45:48;98458.94;;;26.64;53.57
50636;BME280;36598;46.054;11.130;2022-08-19T12:48:13;98449.75;;;26.84;53.14
50636;BME280;36598;46.054;11.130;2022-08-19T12:50:39;98453.38;;;26.85;51.73
50636;BME280;36598;46.054;11.130;2022-08-19T12:53:05;98451.94;;;26.33;52.88
50636;BME280;36598;46.054;11.130;2022-08-19T12:55:30;98454.00;;;25.87;53.68
50636;BME280;36598;46.054;11.130;2022-08-19T12:57:56;98455.72;;;26.09;53.73
50636;BME280;36598;46.054;11.130;2022-08-19T13:00:21;98457.34;;;25.29;56.45
50636;BME280;36598;46.054;11.130;2022-08-19T13:02:49;98462.53;;;25.25;56.59
50636;BME280;36598;46.054;11.130;2022-08-19T13:05:18;98465.38;;;25.25;56.78